»·PEaware :: N786SG KGJT-KASE

N786SG :: KGJT-KASE

FLIGHT INFORMATION

Flight Status: Arrived
Operator: Privately registered:
United States
More flights under this callsign
Pilot: Sulaiman S. (16428)
Aircraft: CESSNA 172 SKYHAWK
(C172)
More flights by this aircraft type
Origin: KGJT Walker
United States
Destination: KASE Aspen-Pitkin Co/Sardy
United States
More flights between these airports :: More routes between these airports
Route: +
File this flight plan on PilotEdge
Remarks:
Altitude:
(Current/Filed)
13,500ft
Speed:
(Current/Filed)
0kts
Departed: 05-Oct-17 09:30 AM
Arrived: 05-Oct-17 10:19 AM
Distance/Time
Traveled:
77nm/0:48
Distance/Time
To Go:
Arrived

Flight Plot

Page will automatically refresh every two minutes.

Flight plan parsing failed; only flown route is shown


Map Options




Map Legend


Flown Route
Filed Route
Departure Airport
Arrival Airport
Navaid (VOR, NDB)
Fix

Horizontal Profiles

Position Reports

Time Latitude Longitude Heading Altitude Ground
Speed
05-Oct-17 09:07 39.119099 -108.521329 93 4860ft 0kts
05-Oct-17 09:08 39.119099 -108.521329 93 4860ft 0kts
05-Oct-17 09:09 39.119099 -108.521329 93 4860ft 0kts
05-Oct-17 09:10 39.119099 -108.521329 93 4860ft 0kts
05-Oct-17 09:11 39.119099 -108.521329 93 4860ft 0kts
05-Oct-17 09:12 39.119099 -108.521329 93 4860ft 0kts
05-Oct-17 09:13 39.119099 -108.521329 93 4860ft 0kts
05-Oct-17 09:14 39.119099 -108.521329 93 4860ft 0kts
05-Oct-17 09:15 39.119099 -108.521329 93 4860ft 0kts
05-Oct-17 09:16 39.119099 -108.521329 93 4860ft 0kts
05-Oct-17 09:17 39.119099 -108.521329 93 4860ft 0kts
05-Oct-17 09:18 39.119099 -108.521329 93 4860ft 0kts
05-Oct-17 09:21 39.119100 -108.521309 127 4860ft 0kts
05-Oct-17 09:22 39.119100 -108.521309 127 4860ft 0kts
05-Oct-17 09:23 39.119100 -108.521309 127 4860ft 0kts
05-Oct-17 09:24 39.119094 -108.521298 122 4860ft 0kts
05-Oct-17 09:25 39.119075 -108.521166 77 4860ft 1kts
05-Oct-17 09:26 39.119327 -108.520933 26 4860ft 2kts
05-Oct-17 09:27 39.119270 -108.520259 120 4860ft 2kts
05-Oct-17 09:28 39.119624 -108.519651 36 4860ft 0kts
05-Oct-17 09:29 39.119265 -108.518176 125 4860ft 10kts
05-Oct-17 09:30 39.118225 -108.516287 124 4860ft 0kts
05-Oct-17 09:31 39.118225 -108.516287 124 4860ft 0kts
05-Oct-17 09:32 39.118022 -108.515910 124 4860ft 3kts
05-Oct-17 09:33 39.118466 -108.514843 7 4860ft 1kts
05-Oct-17 09:34 39.121573 -108.519941 300 4862ft 75kts
05-Oct-17 09:35 39.132490 -108.542802 291 5715ft 82kts
05-Oct-17 09:36 39.109971 -108.547536 127 6045ft 122kts
05-Oct-17 09:37 39.099276 -108.514491 109 6521ft 86kts
05-Oct-17 09:38 39.092422 -108.488040 106 7442ft 76kts
05-Oct-17 09:39 39.096357 -108.460254 63 8129ft 90kts
05-Oct-17 09:40 39.107194 -108.431538 59 8917ft 87kts
05-Oct-17 09:41 39.119685 -108.404257 63 9627ft 90kts
05-Oct-17 09:42 39.121424 -108.372858 76 10292ft 88kts
05-Oct-17 09:43 39.123503 -108.342768 92 10846ft 89kts
05-Oct-17 09:44 39.122490 -108.310566 94 11373ft 91kts
05-Oct-17 09:45 39.119611 -108.278244 97 11910ft 88kts
05-Oct-17 09:46 39.119714 -108.247912 93 12444ft 83kts
05-Oct-17 09:47 39.117620 -108.219588 94 12942ft 79kts
05-Oct-17 09:48 39.115453 -108.190504 94 13368ft 82kts
05-Oct-17 09:49 39.112952 -108.156252 95 13469ft 117kts
05-Oct-17 09:50 39.109848 -108.112550 95 13454ft 126kts
05-Oct-17 09:51 39.107035 -108.067658 80 13448ft 125kts
05-Oct-17 09:52 39.112520 -108.023581 81 13454ft 125kts
05-Oct-17 09:53 39.117315 -107.979253 82 13454ft 124kts
05-Oct-17 09:54 39.121897 -107.934973 82 13454ft 124kts
05-Oct-17 09:55 39.126405 -107.890741 82 13454ft 124kts
05-Oct-17 09:56 39.130896 -107.846389 82 13454ft 124kts
05-Oct-17 09:57 39.135362 -107.802068 82 13454ft 124kts
05-Oct-17 09:58 39.139441 -107.759106 76 13605ft 119kts
05-Oct-17 09:59 39.144118 -107.715701 79 13698ft 127kts
05-Oct-17 10:00 39.148860 -107.668904 83 13699ft 136kts
05-Oct-17 10:01 39.153604 -107.620389 85 13698ft 137kts
05-Oct-17 10:02 39.158249 -107.572514 86 13696ft 134kts
05-Oct-17 10:03 39.162814 -107.525680 86 13698ft 132kts
05-Oct-17 10:04 39.167364 -107.479045 87 13695ft 130kts
05-Oct-17 10:05 39.171834 -107.433170 87 13697ft 128kts
05-Oct-17 10:06 39.176266 -107.387648 87 13674ft 128kts
05-Oct-17 10:07 39.180660 -107.341867 87 13519ft 131kts
05-Oct-17 10:08 39.185006 -107.296693 87 13507ft 125kts
05-Oct-17 10:09 39.189329 -107.251643 87 13415ft 126kts
05-Oct-17 10:10 39.193589 -107.207569 89 13384ft 121kts
05-Oct-17 10:11 39.197568 -107.165101 88 13386ft 118kts
05-Oct-17 10:12 39.201460 -107.124115 89 13396ft 118kts
05-Oct-17 10:13 39.205438 -107.082024 88 13386ft 118kts
05-Oct-17 10:14 39.209364 -107.040228 89 13388ft 118kts
05-Oct-17 10:15 39.213294 -106.998392 88 13389ft 117kts
05-Oct-17 10:16 39.217182 -106.956765 88 13388ft 117kts
05-Oct-17 10:17 39.220801 -106.916624 88 12330ft 119kts
05-Oct-17 10:18 39.234426 -106.888809 1 11069ft 134kts
05-Oct-17 10:19 39.272717 -106.883807 79 8884ft 138kts
05-Oct-17 10:20 39.260295 -106.872930 224 8619ft 68kts
05-Oct-17 10:21 39.243800 -106.878422 163 8207ft 60kts
05-Oct-17 10:22 39.230389 -106.872090 164 7823ft 44kts
05-Oct-17 10:23 39.229119 -106.870420 68 7822ft 0kts

Navigation Log

Ident Type
Flight plan parsing failed, navigation log unavailable